createdAt,value
2022-07-25T00:00:40.538Z,0.00
2022-07-25T00:01:41.180Z,0.00
2022-07-25T00:02:40.849Z,0.00
2022-07-25T00:03:41.006Z,0.00
2022-07-25T00:04:41.273Z,0.00
2022-07-25T00:05:41.437Z,0.00
2022-07-25T00:06:41.621Z,0.00
2022-07-25T00:07:41.795Z,0.00
2022-07-25T00:08:41.966Z,0.00
2022-07-25T00:09:43.106Z,0.00
2022-07-25T00:10:43.299Z,0.00
2022-07-25T00:11:42.456Z,0.00
2022-07-25T00:12:42.601Z,0.00
2022-07-25T00:13:42.771Z,0.00
2022-07-25T00:14:42.960Z,0.00
2022-07-25T00:15:43.703Z,0.00
2022-07-25T00:16:43.266Z,0.00
2022-07-25T00:17:43.470Z,0.00
2022-07-25T00:18:43.626Z,0.00
2022-07-25T00:19:44.617Z,0.00
2022-07-25T00:20:43.977Z,0.00
2022-07-25T00:21:44.154Z,0.00
2022-07-25T00:22:44.632Z,0.00
2022-07-25T00:23:44.496Z,0.00
2022-07-25T00:24:44.623Z,0.00
2022-07-25T00:25:44.747Z,0.00
2022-07-25T00:26:44.892Z,0.00
2022-07-25T00:27:45.043Z,0.00
2022-07-25T00:28:45.212Z,0.00
2022-07-25T00:29:46.126Z,0.00
2022-07-25T00:30:45.566Z,0.00
2022-07-25T00:31:45.682Z,0.00
2022-07-25T00:32:45.883Z,0.00
2022-07-25T00:33:46.052Z,0.00
2022-07-25T00:34:46.178Z,0.00
2022-07-25T00:35:47.157Z,0.00
2022-07-25T00:36:46.536Z,0.00
2022-07-25T00:37:47.645Z,0.00
2022-07-25T00:38:46.902Z,0.00
2022-07-25T00:39:47.055Z,0.00
2022-07-25T00:40:47.212Z,0.00
2022-07-25T00:41:48.453Z,0.00
2022-07-25T00:42:47.659Z,0.00
2022-07-25T00:43:47.822Z,0.00
2022-07-25T00:44:48.638Z,0.00
2022-07-25T00:45:48.628Z,0.00
2022-07-25T00:46:48.350Z,0.00
2022-07-25T00:47:49.141Z,0.00
2022-07-25T00:48:48.724Z,0.00
2022-07-25T00:49:49.628Z,0.00
2022-07-25T00:50:49.038Z,0.00
2022-07-25T00:51:49.173Z,0.00
2022-07-25T00:52:49.301Z,0.00
2022-07-25T00:53:49.555Z,0.00
2022-07-25T00:54:49.693Z,0.00
2022-07-25T00:55:49.822Z,0.00
2022-07-25T00:56:50.070Z,0.00
2022-07-25T00:57:51.131Z,0.00
2022-07-25T00:58:50.353Z,0.00
2022-07-25T00:59:50.507Z,0.00
2022-07-25T01:00:50.611Z,0.00
2022-07-25T01:01:50.802Z,0.00
2022-07-25T01:02:51.741Z,0.00
2022-07-25T01:03:51.005Z,0.00
2022-07-25T01:04:51.651Z,0.00
2022-07-25T01:05:53.661Z,0.00
2022-07-25T01:06:52.496Z,0.00
2022-07-25T01:07:52.634Z,0.00
2022-07-25T01:08:51.884Z,0.00
2022-07-25T01:09:52.060Z,0.00
2022-07-25T01:10:52.218Z,0.00
2022-07-25T01:11:53.142Z,0.00
2022-07-25T01:12:52.499Z,0.00
2022-07-25T01:13:52.640Z,0.00
2022-07-25T01:14:52.809Z,0.00
2022-07-25T01:15:53.693Z,0.00
2022-07-25T01:16:53.119Z,0.00
2022-07-25T01:17:53.663Z,0.00
2022-07-25T01:18:54.144Z,0.00
2022-07-25T01:19:53.661Z,0.00
2022-07-25T01:20:54.670Z,0.00
2022-07-25T01:21:54.539Z,0.00
2022-07-25T01:22:54.198Z,0.00
2022-07-25T01:23:54.368Z,0.00
2022-07-25T01:24:54.519Z,0.00
2022-07-25T01:25:55.644Z,0.00
2022-07-25T01:26:55.649Z,0.00
2022-07-25T01:27:56.158Z,0.00
2022-07-25T01:28:56.161Z,0.00
2022-07-25T01:29:55.290Z,0.00
2022-07-25T01:30:55.557Z,0.00
2022-07-25T01:31:56.668Z,0.00
2022-07-25T01:32:56.147Z,0.00
2022-07-25T01:33:57.041Z,0.00
2022-07-25T01:34:56.299Z,0.00
2022-07-25T01:35:56.445Z,0.00
2022-07-25T01:36:56.624Z,0.00
2022-07-25T01:37:56.777Z,0.00
2022-07-25T01:38:57.662Z,0.00
2022-07-25T01:39:57.169Z,0.00
2022-07-25T01:40:58.150Z,0.00
2022-07-25T01:41:57.565Z,0.00
2022-07-25T01:42:57.703Z,0.00
2022-07-25T01:43:58.653Z,0.00
2022-07-25T01:44:58.647Z,0.00
2022-07-25T01:45:58.226Z,0.00
2022-07-25T01:46:58.664Z,0.00
2022-07-25T01:47:59.156Z,0.00
2022-07-25T01:48:58.582Z,0.00
2022-07-25T01:49:58.754Z,0.00
2022-07-25T01:50:58.907Z,0.00
2022-07-25T01:51:59.175Z,0.00
2022-07-25T01:52:59.207Z,0.00
2022-07-25T01:53:59.413Z,0.00
2022-07-25T01:54:59.573Z,0.00
2022-07-25T01:56:00.658Z,0.00
2022-07-25T01:56:59.965Z,0.00
2022-07-25T01:58:00.121Z,0.00
2022-07-25T01:59:01.152Z,0.00
2022-07-25T02:00:00.389Z,0.00
2022-07-25T02:01:01.180Z,0.00
2022-07-25T02:02:01.224Z,0.00
2022-07-25T02:03:00.911Z,0.00
2022-07-25T02:04:01.145Z,0.00
2022-07-25T02:05:01.259Z,0.00
2022-07-25T02:06:01.341Z,0.00
2022-07-25T02:07:01.510Z,0.00
2022-07-25T02:08:01.703Z,0.00
2022-07-25T02:09:02.169Z,0.00
2022-07-25T02:10:02.051Z,0.00
2022-07-25T02:11:02.194Z,0.00
2022-07-25T02:12:02.350Z,0.00
2022-07-25T02:13:03.158Z,0.00
2022-07-25T02:14:03.396Z,0.00
2022-07-25T02:15:02.853Z,0.00
2022-07-25T02:16:02.990Z,0.00
2022-07-25T02:17:03.155Z,0.00
2022-07-25T02:18:03.318Z,0.00
2022-07-25T02:19:03.676Z,0.00
2022-07-25T02:20:03.701Z,0.00
2022-07-25T02:21:03.873Z,0.00
2022-07-25T02:22:04.663Z,0.00
2022-07-25T02:23:04.242Z,0.00
2022-07-25T02:24:04.786Z,0.00
2022-07-25T02:25:04.726Z,0.00
2022-07-25T02:26:04.760Z,0.00
2022-07-25T02:27:05.665Z,0.00
2022-07-25T02:28:05.672Z,0.00
2022-07-25T02:29:05.201Z,0.00
2022-07-25T02:30:06.170Z,0.00
2022-07-25T02:31:06.239Z,0.00
2022-07-25T02:32:05.769Z,0.00
2022-07-25T02:33:06.691Z,0.00
2022-07-25T02:34:06.271Z,0.00
2022-07-25T02:35:13.019Z,0.00
2022-07-25T02:36:07.400Z,0.00
2022-07-25T02:37:06.656Z,0.00
2022-07-25T02:38:06.836Z,0.00
2022-07-25T02:39:07.000Z,0.00
2022-07-25T02:40:07.687Z,0.00
2022-07-25T02:41:07.326Z,0.00
2022-07-25T02:42:07.492Z,0.00
2022-07-25T02:43:07.701Z,0.00
2022-07-25T02:44:08.280Z,0.00
2022-07-25T02:45:08.027Z,0.00
2022-07-25T02:46:08.311Z,0.00
2022-07-25T02:47:08.444Z,0.00
2022-07-25T02:48:09.177Z,0.00
2022-07-25T02:49:08.933Z,0.00
2022-07-25T02:50:09.019Z,0.00
2022-07-25T02:51:10.259Z,0.00
2022-07-25T02:52:09.396Z,0.00
2022-07-25T02:53:10.176Z,0.00
2022-07-25T02:54:10.615Z,0.00
2022-07-25T02:55:10.100Z,0.00
2022-07-25T02:56:10.036Z,0.00
2022-07-25T02:57:11.187Z,0.00
2022-07-25T02:58:10.448Z,0.00
2022-07-25T02:59:10.629Z,0.00
2022-07-25T03:00:11.675Z,0.00
2022-07-25T03:01:11.011Z,0.00
2022-07-25T03:02:11.120Z,0.00
2022-07-25T03:03:12.177Z,0.00
2022-07-25T03:04:11.756Z,0.00
2022-07-25T03:05:11.592Z,0.00
2022-07-25T03:06:12.691Z,0.00
2022-07-25T03:07:11.955Z,0.00
2022-07-25T03:08:12.684Z,4.00
2022-07-25T03:09:12.312Z,4.00
2022-07-25T03:10:13.525Z,0.00
2022-07-25T03:11:13.672Z,0.00
2022-07-25T03:12:12.802Z,4.00
2022-07-25T03:13:12.946Z,4.00
2022-07-25T03:14:13.091Z,0.00
2022-07-25T03:15:14.202Z,4.00
2022-07-25T03:16:13.752Z,4.00
2022-07-25T03:17:13.600Z,4.00
2022-07-25T03:18:13.753Z,4.00
2022-07-25T03:19:13.909Z,8.00
2022-07-25T03:20:14.053Z,4.00
2022-07-25T03:21:14.209Z,8.00
2022-07-25T03:22:14.706Z,8.00
2022-07-25T03:23:14.588Z,8.00
2022-07-25T03:24:15.688Z,8.00
2022-07-25T03:25:15.423Z,12.00
2022-07-25T03:26:16.688Z,12.00
2022-07-25T03:27:15.700Z,16.00
2022-07-25T03:28:15.438Z,16.00
2022-07-25T03:29:15.557Z,16.00
2022-07-25T03:30:15.704Z,16.00
2022-07-25T03:31:16.736Z,20.00
2022-07-25T03:32:16.081Z,28.00
2022-07-25T03:33:16.693Z,24.00
2022-07-25T03:34:16.389Z,28.00
2022-07-25T03:35:16.712Z,32.00
2022-07-25T03:36:16.731Z,36.00
2022-07-25T03:37:16.858Z,40.00
2022-07-25T03:38:16.986Z,44.00
2022-07-25T03:39:17.211Z,48.00
2022-07-25T03:40:17.369Z,52.00
2022-07-25T03:41:17.518Z,56.00
2022-07-25T03:42:17.707Z,60.00
2022-07-25T03:43:17.857Z,68.00
2022-07-25T03:44:18.039Z,72.00
2022-07-25T03:45:18.206Z,80.00
2022-07-25T03:46:18.410Z,84.00
2022-07-25T03:47:20.469Z,92.00
2022-07-25T03:48:18.619Z,96.00
2022-07-25T03:49:19.217Z,104.00
2022-07-25T03:50:19.025Z,112.00
2022-07-25T03:51:20.227Z,120.00
2022-07-25T03:52:19.357Z,124.00
2022-07-25T03:53:19.533Z,140.00
2022-07-25T03:54:19.716Z,144.00
2022-07-25T03:55:19.905Z,152.00
2022-07-25T03:56:20.061Z,168.00
2022-07-25T03:57:20.235Z,176.00
2022-07-25T03:58:20.428Z,192.00
2022-07-25T03:59:21.203Z,192.00
2022-07-25T04:00:20.732Z,204.00
2022-07-25T04:01:20.960Z,224.00
2022-07-25T04:02:21.808Z,224.00
2022-07-25T04:03:21.713Z,236.00
2022-07-25T04:04:22.210Z,252.00
2022-07-25T04:05:22.205Z,264.00
2022-07-25T04:06:21.600Z,276.00
2022-07-25T04:07:21.776Z,284.00
2022-07-25T04:08:21.965Z,288.00
2022-07-25T04:09:22.231Z,312.00
2022-07-25T04:10:22.259Z,328.00
2022-07-25T04:11:22.715Z,336.00
2022-07-25T04:12:23.207Z,348.00
2022-07-25T04:13:22.863Z,348.00
2022-07-25T04:14:23.020Z,368.00
2022-07-25T04:15:23.221Z,396.00
2022-07-25T04:16:23.486Z,416.00
2022-07-25T04:17:23.783Z,412.00
2022-07-25T04:18:24.675Z,428.00
2022-07-25T04:19:25.376Z,436.00
2022-07-25T04:20:24.035Z,456.00
2022-07-25T04:21:24.157Z,468.00
2022-07-25T04:22:25.212Z,480.00
2022-07-25T04:23:25.209Z,500.00
2022-07-25T04:24:24.723Z,520.00
2022-07-25T04:25:24.769Z,516.00
2022-07-25T04:26:24.947Z,540.00
2022-07-25T04:27:25.708Z,556.00
2022-07-25T04:28:26.215Z,576.00
2022-07-25T04:29:26.211Z,584.00
2022-07-25T04:30:26.221Z,628.00
2022-07-25T04:31:25.890Z,612.00
2022-07-25T04:32:26.086Z,632.00
2022-07-25T04:33:26.289Z,648.00
2022-07-25T04:34:26.441Z,664.00
2022-07-25T04:35:26.605Z,684.00
2022-07-25T04:36:26.755Z,684.00
2022-07-25T04:37:26.918Z,696.00
2022-07-25T04:38:27.081Z,732.00
2022-07-25T04:39:27.253Z,748.00
2022-07-25T04:40:28.220Z,760.00
2022-07-25T04:41:28.217Z,768.00
2022-07-25T04:42:28.215Z,784.00
2022-07-25T04:43:29.002Z,812.00
2022-07-25T04:44:28.155Z,836.00
2022-07-25T04:45:29.275Z,860.00
2022-07-25T04:46:28.533Z,884.00
2022-07-25T04:47:28.733Z,920.00
2022-07-25T04:48:28.968Z,924.00
2022-07-25T04:49:29.160Z,632.00
2022-07-25T04:50:29.729Z,972.00
2022-07-25T04:51:29.579Z,1980.00
2022-07-25T04:52:29.779Z,1768.00
2022-07-25T04:53:29.955Z,1600.00
2022-07-25T04:54:30.137Z,1012.00
2022-07-25T04:55:30.731Z,1020.00
2022-07-25T04:56:30.562Z,1216.00
2022-07-25T04:57:30.692Z,2320.00
2022-07-25T04:58:31.837Z,1180.00
2022-07-25T04:59:31.084Z,1280.00
2022-07-25T05:00:31.286Z,2884.00
2022-07-25T05:01:31.614Z,3984.00
2022-07-25T05:02:31.652Z,1212.00
2022-07-25T05:03:31.742Z,1240.00
2022-07-25T05:04:31.890Z,2368.00
2022-07-25T05:05:32.058Z,1272.00
2022-07-25T05:06:32.243Z,1252.00
2022-07-25T05:07:32.429Z,1248.00
2022-07-25T05:08:32.564Z,1100.00
2022-07-25T05:09:33.261Z,1280.00
2022-07-25T05:10:33.731Z,1744.00
2022-07-25T05:11:33.122Z,1364.00
2022-07-25T05:12:33.742Z,1352.00
2022-07-25T05:13:34.229Z,1376.00
2022-07-25T05:14:33.738Z,1368.00
2022-07-25T05:15:33.756Z,1560.00
2022-07-25T05:16:34.812Z,1484.00
2022-07-25T05:17:34.168Z,1288.00
2022-07-25T05:18:34.351Z,1520.00
2022-07-25T05:19:34.562Z,1552.00
2022-07-25T05:20:34.738Z,1556.00
2022-07-25T05:21:34.896Z,1748.00
2022-07-25T05:22:35.046Z,1604.00
2022-07-25T05:23:35.730Z,1608.00
2022-07-25T05:24:35.373Z,1656.00
2022-07-25T05:25:35.516Z,1668.00
2022-07-25T05:26:35.645Z,1708.00
2022-07-25T05:27:35.775Z,1944.00
2022-07-25T05:28:35.951Z,1756.00
2022-07-25T05:29:36.082Z,1796.00
2022-07-25T05:30:39.734Z,184.00
2022-07-25T05:31:37.469Z,1944.00
2022-07-25T05:32:36.665Z,1876.00
2022-07-25T05:33:36.812Z,1864.00
2022-07-25T05:34:37.308Z,1884.00
2022-07-25T05:35:37.078Z,1852.00
2022-07-25T05:36:37.735Z,1628.00
2022-07-25T05:37:38.239Z,1652.00
2022-07-25T05:38:37.582Z,1756.00
2022-07-25T05:39:38.246Z,1768.00
2022-07-25T05:40:37.904Z,1836.00
2022-07-25T05:41:38.738Z,1880.00
2022-07-25T05:42:38.737Z,2008.00
2022-07-25T05:43:38.467Z,2124.00
2022-07-25T05:44:38.597Z,2144.00
2022-07-25T05:45:38.749Z,124.00
2022-07-25T05:46:38.921Z,2256.00
2022-07-25T05:47:39.102Z,624.00
2022-07-25T05:48:39.291Z,2092.00
2022-07-25T05:49:40.254Z,2384.00
2022-07-25T05:50:39.647Z,2336.00
2022-07-25T05:51:39.794Z,2388.00
2022-07-25T05:52:40.747Z,2536.00
2022-07-25T05:53:40.125Z,2696.00
2022-07-25T05:54:40.249Z,2500.00
2022-07-25T05:55:41.050Z,2568.00
2022-07-25T05:56:40.555Z,2448.00
2022-07-25T05:57:40.684Z,2268.00
2022-07-25T05:58:40.836Z,2200.00
2022-07-25T05:59:40.990Z,2248.00
2022-07-25T06:00:41.263Z,2192.00
2022-07-25T06:01:42.276Z,2240.00
2022-07-25T06:02:41.512Z,2144.00
2022-07-25T06:03:41.583Z,2456.00
2022-07-25T06:04:41.718Z,2860.00
2022-07-25T06:05:42.265Z,2172.00
2022-07-25T06:06:42.132Z,2448.00
2022-07-25T06:07:42.305Z,4392.00
2022-07-25T06:08:43.457Z,2472.00
2022-07-25T06:09:42.574Z,2368.00
2022-07-25T06:10:42.736Z,2620.00
2022-07-25T06:11:54.365Z,2284.00
2022-07-25T06:12:44.012Z,2192.00
2022-07-25T06:13:43.133Z,1784.00
2022-07-25T06:14:44.265Z,2004.00
2022-07-25T06:15:43.505Z,2212.00
2022-07-25T06:16:43.715Z,1816.00
2022-07-25T06:17:43.788Z,1860.00
2022-07-25T06:18:44.967Z,1828.00
2022-07-25T06:19:44.757Z,2008.00
2022-07-25T06:20:44.252Z,2184.00
2022-07-25T06:21:44.403Z,2832.00
2022-07-25T06:22:45.254Z,3480.00
2022-07-25T06:23:45.276Z,3196.00
2022-07-25T06:24:45.755Z,2412.00
2022-07-25T06:25:50.356Z,2500.00
2022-07-25T06:26:46.277Z,2984.00
2022-07-25T06:27:46.268Z,2972.00
2022-07-25T06:28:46.280Z,3136.00
2022-07-25T06:29:46.756Z,2732.00
2022-07-25T06:30:46.753Z,2900.00
2022-07-25T06:31:46.418Z,3684.00
2022-07-25T06:32:47.275Z,2580.00
2022-07-25T06:33:46.544Z,2624.00
2022-07-25T06:34:46.705Z,2332.00
2022-07-25T06:35:47.765Z,2248.00
2022-07-25T06:36:46.984Z,2188.00
2022-07-25T06:37:47.145Z,2068.00
2022-07-25T06:38:48.261Z,2064.00
2022-07-25T06:39:47.571Z,2064.00
2022-07-25T06:40:47.724Z,1976.00
2022-07-25T06:41:48.767Z,1984.00
2022-07-25T06:42:48.008Z,1968.00
2022-07-25T06:43:48.761Z,1980.00
2022-07-25T06:44:49.355Z,2028.00
2022-07-25T06:45:49.261Z,2016.00
2022-07-25T06:46:48.689Z,2040.00
2022-07-25T06:47:49.772Z,2092.00
2022-07-25T06:48:48.928Z,2272.00
2022-07-25T06:49:49.119Z,2620.00
2022-07-25T06:50:49.275Z,2824.00
2022-07-25T06:51:50.268Z,3296.00
2022-07-25T06:52:50.273Z,3272.00
2022-07-25T06:53:49.771Z,3660.00
2022-07-25T06:54:49.897Z,3664.00
2022-07-25T06:55:50.279Z,3752.00
2022-07-25T06:56:50.801Z,3952.00
2022-07-25T06:57:51.265Z,4076.00
2022-07-25T06:58:50.642Z,3836.00
2022-07-25T06:59:51.770Z,3884.00
2022-07-25T07:00:51.085Z,3836.00
2022-07-25T07:01:51.878Z,3484.00
2022-07-25T07:02:53.577Z,3536.00
2022-07-25T07:03:51.603Z,3280.00
2022-07-25T07:04:51.704Z,3248.00
2022-07-25T07:05:51.865Z,3172.00
2022-07-25T07:06:52.310Z,3252.00
2022-07-25T07:07:52.220Z,3000.00
2022-07-25T07:08:52.398Z,2936.00
2022-07-25T07:09:53.272Z,2848.00
2022-07-25T07:10:53.274Z,2756.00
2022-07-25T07:11:52.939Z,2828.00
2022-07-25T07:12:53.061Z,3264.00
2022-07-25T07:13:53.224Z,2960.00
2022-07-25T07:14:53.386Z,2784.00
2022-07-25T07:15:53.553Z,2608.00
2022-07-25T07:16:53.791Z,2768.00
2022-07-25T07:17:53.940Z,2856.00
2022-07-25T07:18:54.111Z,4000.00
2022-07-25T07:19:54.778Z,2932.00
2022-07-25T07:20:54.411Z,3292.00
2022-07-25T07:21:54.575Z,2504.00
2022-07-25T07:22:54.803Z,2364.00
2022-07-25T07:23:55.777Z,2156.00
2022-07-25T07:24:55.206Z,2020.00
2022-07-25T07:25:55.433Z,1992.00
2022-07-25T07:26:55.625Z,1932.00
2022-07-25T07:27:55.740Z,1948.00
2022-07-25T07:28:56.783Z,1948.00
2022-07-25T07:29:56.042Z,1896.00
2022-07-25T07:31:15.585Z,1888.00
2022-07-25T07:31:58.522Z,1864.00
2022-07-25T07:32:56.599Z,1848.00
2022-07-25T07:33:56.744Z,1864.00
2022-07-25T07:34:56.929Z,1884.00
2022-07-25T07:35:57.219Z,1936.00
2022-07-25T07:36:58.348Z,1888.00
2022-07-25T07:37:57.455Z,1904.00
2022-07-25T07:38:58.281Z,1932.00
2022-07-25T07:39:57.897Z,1940.00
2022-07-25T07:40:58.133Z,1944.00
2022-07-25T07:41:58.369Z,1916.00
2022-07-25T07:42:58.796Z,1956.00
2022-07-25T07:43:58.649Z,1856.00
2022-07-25T07:44:58.899Z,1932.00
2022-07-25T07:45:59.853Z,1936.00
2022-07-25T07:46:59.858Z,1968.00
2022-07-25T07:47:59.508Z,1996.00
2022-07-25T07:48:59.709Z,2112.00
2022-07-25T07:50:00.294Z,2128.00
2022-07-25T07:50:59.928Z,2144.00
2022-07-25T07:52:00.036Z,2224.00
2022-07-25T07:53:00.791Z,2168.00
2022-07-25T07:54:00.396Z,2200.00
2022-07-25T07:55:00.524Z,2272.00
2022-07-25T07:56:01.310Z,2176.00
2022-07-25T07:57:01.798Z,2092.00
2022-07-25T07:58:01.026Z,2008.00
2022-07-25T07:59:01.159Z,1924.00
2022-07-25T08:00:02.284Z,1840.00
2022-07-25T08:01:01.433Z,1812.00
2022-07-25T08:02:01.640Z,1776.00
2022-07-25T08:03:01.825Z,1752.00
2022-07-25T08:04:02.326Z,1720.00
2022-07-25T08:05:02.793Z,1676.00
2022-07-25T08:06:02.795Z,1684.00
2022-07-25T08:07:03.304Z,1648.00
2022-07-25T08:08:02.678Z,1624.00
2022-07-25T08:09:03.723Z,1612.00
2022-07-25T08:10:02.990Z,1772.00
2022-07-25T08:11:03.146Z,1760.00
2022-07-25T08:12:03.878Z,1780.00
2022-07-25T08:13:03.501Z,1860.00
2022-07-25T08:14:04.797Z,2040.00
2022-07-25T08:15:04.824Z,2208.00
2022-07-25T08:16:04.204Z,2468.00
2022-07-25T08:17:04.202Z,2608.00
2022-07-25T08:18:04.824Z,2896.00
2022-07-25T08:19:05.550Z,2728.00
2022-07-25T08:20:27.573Z,2708.00
2022-07-25T08:21:07.805Z,2724.00
2022-07-25T08:22:05.821Z,2896.00
2022-07-25T08:23:06.302Z,2956.00
2022-07-25T08:24:06.961Z,3332.00
2022-07-25T08:25:06.326Z,3276.00
2022-07-25T08:26:06.088Z,3400.00
2022-07-25T08:27:06.804Z,3296.00
2022-07-25T08:28:07.308Z,3392.00
2022-07-25T08:29:18.784Z,3276.00
2022-07-25T08:30:08.705Z,3416.00
2022-07-25T08:31:06.980Z,3500.00
2022-07-25T08:32:07.813Z,3596.00
2022-07-25T08:33:07.310Z,3680.00
2022-07-25T08:34:07.837Z,3676.00
2022-07-25T08:35:11.366Z,3996.00
2022-07-25T08:36:08.836Z,4080.00
2022-07-25T08:37:07.970Z,3840.00
2022-07-25T08:38:08.815Z,3376.00
2022-07-25T08:39:08.309Z,3524.00
2022-07-25T08:40:08.442Z,3588.00
2022-07-25T08:41:08.671Z,3868.00
2022-07-25T08:42:11.190Z,3780.00
2022-07-25T08:43:09.931Z,3720.00
2022-07-25T08:44:09.895Z,3376.00
2022-07-25T08:45:10.313Z,4456.00
2022-07-25T08:46:09.620Z,3996.00
2022-07-25T08:47:09.792Z,3988.00
2022-07-25T08:48:09.864Z,3788.00
2022-07-25T08:49:10.139Z,3772.00
2022-07-25T08:50:10.219Z,4048.00
2022-07-25T08:51:10.366Z,4212.00
2022-07-25T08:52:10.526Z,4252.00
2022-07-25T08:53:32.048Z,4440.00
2022-07-25T08:54:12.891Z,4208.00
2022-07-25T08:55:11.086Z,4464.00
2022-07-25T08:56:16.046Z,4376.00
2022-07-25T08:57:13.493Z,3676.00
2022-07-25T08:58:12.326Z,3300.00
2022-07-25T08:59:11.733Z,3440.00
2022-07-25T09:00:12.816Z,3820.00
2022-07-25T09:01:13.072Z,4116.00
2022-07-25T09:02:12.234Z,4352.00
2022-07-25T09:03:12.464Z,4592.00
2022-07-25T09:04:12.833Z,4660.00
2022-07-25T09:05:12.847Z,4552.00
2022-07-25T09:06:13.018Z,4348.00
2022-07-25T09:07:13.825Z,4316.00
2022-07-25T09:08:13.334Z,4232.00
2022-07-25T09:09:13.536Z,4252.00
2022-07-25T09:10:13.691Z,3928.00
2022-07-25T09:11:13.906Z,3796.00
2022-07-25T09:12:14.855Z,3524.00
2022-07-25T09:13:14.841Z,3368.00
2022-07-25T09:14:15.017Z,3232.00
2022-07-25T09:15:14.492Z,3144.00
2022-07-25T09:16:15.380Z,3040.00
2022-07-25T09:17:22.235Z,2864.00
2022-07-25T09:18:16.986Z,2660.00
2022-07-25T09:19:15.340Z,2536.00
2022-07-25T09:20:18.468Z,2420.00
2022-07-25T09:21:17.327Z,2276.00
2022-07-25T09:22:16.329Z,2200.00
2022-07-25T09:23:16.850Z,2176.00
2022-07-25T09:24:16.391Z,2088.00
2022-07-25T09:25:16.288Z,2036.00
2022-07-25T09:26:16.561Z,2052.00
2022-07-25T09:27:16.728Z,2072.00
2022-07-25T09:28:17.826Z,2132.00
2022-07-25T09:29:17.831Z,2180.00
2022-07-25T09:30:17.850Z,2192.00
2022-07-25T09:31:17.468Z,2188.00
2022-07-25T09:32:18.315Z,2292.00
2022-07-25T09:33:18.714Z,2440.00
2022-07-25T09:34:21.847Z,2612.00
2022-07-25T09:35:19.830Z,2888.00
2022-07-25T09:36:19.164Z,3056.00
2022-07-25T09:37:18.585Z,3080.00
2022-07-25T09:38:18.762Z,3188.00
2022-07-25T09:39:19.841Z,3316.00
2022-07-25T09:40:19.143Z,3488.00
2022-07-25T09:41:19.339Z,5260.00
2022-07-25T09:42:19.858Z,4940.00
2022-07-25T09:43:19.671Z,3716.00
2022-07-25T09:44:19.839Z,4160.00
2022-07-25T09:45:19.979Z,4940.00
2022-07-25T09:46:20.172Z,3896.00
2022-07-25T09:47:20.340Z,3740.00
2022-07-25T09:48:20.517Z,3832.00
2022-07-25T09:49:20.680Z,4852.00
2022-07-25T09:50:20.833Z,4968.00
2022-07-25T09:51:20.982Z,3776.00
2022-07-25T09:52:21.152Z,3392.00
2022-07-25T09:53:21.336Z,3320.00
2022-07-25T09:54:21.498Z,3284.00
2022-07-25T09:55:21.642Z,3108.00
2022-07-25T09:56:21.774Z,3072.00
2022-07-25T09:57:22.841Z,2996.00
2022-07-25T09:58:22.051Z,2968.00
2022-07-25T09:59:22.305Z,3668.00
2022-07-25T10:00:22.433Z,3944.00
2022-07-25T10:01:22.658Z,4112.00
2022-07-25T10:02:22.794Z,3732.00
2022-07-25T10:03:22.961Z,3484.00
2022-07-25T10:04:23.123Z,3364.00
2022-07-25T10:05:23.301Z,3288.00
2022-07-25T10:06:23.445Z,5972.00
2022-07-25T10:07:25.946Z,4172.00
2022-07-25T10:08:24.835Z,6064.00
2022-07-25T10:09:23.989Z,4552.00
2022-07-25T10:10:24.846Z,3388.00
2022-07-25T10:11:24.340Z,3160.00
2022-07-25T10:12:25.354Z,2736.00
2022-07-25T10:13:25.352Z,2768.00
2022-07-25T10:14:24.857Z,2652.00
2022-07-25T10:15:24.988Z,3816.00
2022-07-25T10:16:25.887Z,3264.00
2022-07-25T10:17:25.851Z,3028.00
2022-07-25T10:18:25.470Z,3144.00
2022-07-25T10:19:25.858Z,3556.00
2022-07-25T10:20:25.864Z,3744.00
2022-07-25T10:21:27.629Z,3648.00
2022-07-25T10:22:53.761Z,4768.00
2022-07-25T10:23:29.356Z,5264.00
2022-07-25T10:24:26.690Z,4132.00
2022-07-25T10:25:26.849Z,4876.00
2022-07-25T10:26:27.011Z,3568.00
2022-07-25T10:27:27.198Z,3072.00
2022-07-25T10:28:27.388Z,2840.00
2022-07-25T10:29:27.541Z,2744.00
2022-07-25T10:30:27.985Z,2924.00
2022-07-25T10:31:28.472Z,2836.00
2022-07-25T10:32:28.129Z,3060.00
2022-07-25T10:33:28.256Z,2928.00
2022-07-25T10:34:29.357Z,2880.00
2022-07-25T10:35:28.612Z,2688.00
2022-07-25T10:36:28.797Z,2652.00
2022-07-25T10:37:29.370Z,2488.00
2022-07-25T10:38:29.862Z,2468.00
2022-07-25T10:39:29.357Z,2600.00
2022-07-25T10:40:29.871Z,2788.00
2022-07-25T10:41:29.625Z,2776.00
2022-07-25T10:42:30.371Z,2820.00
2022-07-25T10:43:29.899Z,2496.00
2022-07-25T10:44:30.038Z,2388.00
2022-07-25T10:45:30.374Z,2368.00
2022-07-25T10:46:31.393Z,2424.00
2022-07-25T10:47:30.892Z,2436.00
2022-07-25T10:48:30.839Z,2552.00
2022-07-25T10:49:32.480Z,2516.00
2022-07-25T10:50:54.358Z,2364.00
2022-07-25T10:51:35.928Z,2300.00
2022-07-25T10:52:32.439Z,2280.00
2022-07-25T10:53:31.558Z,2232.00
2022-07-25T10:54:31.677Z,2060.00
2022-07-25T10:55:32.863Z,1888.00
2022-07-25T10:56:32.885Z,1688.00
2022-07-25T10:57:32.457Z,1572.00
2022-07-25T10:58:32.371Z,1468.00
2022-07-25T10:59:32.509Z,1340.00
2022-07-25T11:00:32.673Z,1300.00
2022-07-25T11:01:32.873Z,1228.00
2022-07-25T11:02:33.120Z,1148.00
2022-07-25T11:03:33.180Z,1100.00
2022-07-25T11:04:33.353Z,1040.00
2022-07-25T11:05:34.372Z,1016.00
2022-07-25T11:06:33.739Z,976.00
2022-07-25T11:07:34.373Z,944.00
2022-07-25T11:08:33.998Z,912.00
2022-07-25T11:09:34.874Z,868.00
2022-07-25T11:10:34.349Z,860.00
2022-07-25T11:11:34.496Z,872.00
2022-07-25T11:12:34.645Z,820.00
2022-07-25T11:13:34.788Z,800.00
2022-07-25T11:14:35.885Z,828.00
2022-07-25T11:15:35.121Z,816.00
2022-07-25T11:16:35.463Z,820.00
2022-07-25T11:17:35.419Z,860.00
2022-07-25T11:18:35.584Z,956.00
2022-07-25T11:19:35.892Z,976.00
2022-07-25T11:20:35.923Z,1020.00
2022-07-25T11:21:36.130Z,1056.00
2022-07-25T11:22:36.291Z,1108.00
2022-07-25T11:23:36.485Z,1120.00
2022-07-25T11:24:36.668Z,1196.00
2022-07-25T11:25:36.891Z,1236.00
2022-07-25T11:26:38.035Z,1296.00
2022-07-25T11:27:37.172Z,1428.00
2022-07-25T11:28:37.301Z,1564.00
2022-07-25T11:29:37.468Z,1868.00
2022-07-25T11:30:37.640Z,2432.00
2022-07-25T11:31:37.912Z,3008.00
2022-07-25T11:32:38.007Z,3108.00
2022-07-25T11:33:39.128Z,2508.00
2022-07-25T11:34:38.309Z,2968.00
2022-07-25T11:35:38.472Z,2236.00
2022-07-25T11:36:38.632Z,2200.00
2022-07-25T11:37:39.399Z,2416.00
2022-07-25T11:38:39.886Z,2796.00
2022-07-25T11:39:39.272Z,2252.00
2022-07-25T11:40:39.893Z,2364.00
2022-07-25T11:41:40.396Z,2928.00
2022-07-25T11:42:39.902Z,2252.00
2022-07-25T11:43:40.892Z,2492.00
2022-07-25T11:44:42.983Z,2492.00
2022-07-25T11:45:42.460Z,2224.00
2022-07-25T11:46:40.906Z,1904.00
2022-07-25T11:47:41.406Z,2152.00
2022-07-25T11:48:42.032Z,2216.00
2022-07-25T11:49:41.063Z,2404.00
2022-07-25T11:50:41.286Z,2648.00
2022-07-25T11:51:41.479Z,3388.00
2022-07-25T11:52:41.698Z,3576.00
2022-07-25T11:53:41.880Z,2640.00
2022-07-25T11:54:42.052Z,2740.00
2022-07-25T11:55:42.208Z,2604.00
2022-07-25T11:56:43.790Z,2860.00
2022-07-25T11:57:43.520Z,2992.00
2022-07-25T11:58:42.913Z,3596.00
2022-07-25T11:59:43.400Z,2508.00
2022-07-25T12:00:42.937Z,2304.00
2022-07-25T12:01:43.896Z,2228.00
2022-07-25T12:02:43.997Z,2280.00
2022-07-25T12:03:43.541Z,3584.00
2022-07-25T12:04:44.400Z,3764.00
2022-07-25T12:05:44.434Z,3668.00
2022-07-25T12:06:44.116Z,3648.00
2022-07-25T12:07:44.237Z,3676.00
2022-07-25T12:08:44.411Z,3640.00
2022-07-25T12:09:45.551Z,3616.00
2022-07-25T12:10:45.403Z,3684.00
2022-07-25T12:11:44.870Z,3648.00
2022-07-25T12:12:45.138Z,3524.00
2022-07-25T12:13:45.289Z,2316.00
2022-07-25T12:14:46.397Z,2132.00
2022-07-25T12:15:45.628Z,2348.00
2022-07-25T12:16:45.874Z,2176.00
2022-07-25T12:17:45.937Z,2144.00
2022-07-25T12:18:46.437Z,2284.00
2022-07-25T12:19:46.937Z,2328.00
2022-07-25T12:20:46.398Z,2284.00
2022-07-25T12:21:46.619Z,2852.00
2022-07-25T12:22:46.755Z,3508.00
2022-07-25T12:23:46.911Z,2232.00
2022-07-25T12:24:47.040Z,2120.00
2022-07-25T12:25:47.197Z,2048.00
2022-07-25T12:26:47.318Z,2020.00
2022-07-25T12:27:49.419Z,2124.00
2022-07-25T12:28:48.407Z,2160.00
2022-07-25T12:29:48.401Z,2200.00
2022-07-25T12:30:50.561Z,2424.00